sensor_id;sensor_type;location;lat;lon;timestamp;P1;durP1;ratioP1;P2;durP2;ratioP2
16113;SDS011;8161;-33.910;151.156;2023-03-24T00:00:29;185.47;;;175.77;;
16113;SDS011;8161;-33.910;151.156;2023-03-24T00:02:56;203.07;;;192.45;;
16113;SDS011;8161;-33.910;151.156;2023-03-24T00:05:26;213.02;;;201.88;;
16113;SDS011;8161;-33.910;151.156;2023-03-24T00:07:55;218.88;;;207.48;;
16113;SDS011;8161;-33.910;151.156;2023-03-24T00:10:24;208.77;;;197.83;;
16113;SDS011;8161;-33.910;151.156;2023-03-24T00:12:55;201.30;;;190.63;;
16113;SDS011;8161;-33.910;151.156;2023-03-24T00:15:23;204.20;;;193.32;;
16113;SDS011;8161;-33.910;151.156;2023-03-24T00:17:51;201.88;;;191.18;;
16113;SDS011;8161;-33.910;151.156;2023-03-24T00:20:21;217.63;;;206.07;;
16113;SDS011;8161;-33.910;151.156;2023-03-24T00:22:52;233.68;;;221.65;;
16113;SDS011;8161;-33.910;151.156;2023-03-24T00:25:25;252.33;;;239.33;;
16113;SDS011;8161;-33.910;151.156;2023-03-24T00:27:55;270.80;;;256.90;;
16113;SDS011;8161;-33.910;151.156;2023-03-24T00:30:22;297.58;;;282.15;;
16113;SDS011;8161;-33.910;151.156;2023-03-24T00:32:51;338.00;;;320.38;;
16113;SDS011;8161;-33.910;151.156;2023-03-24T00:35:19;377.25;;;357.10;;
16113;SDS011;8161;-33.910;151.156;2023-03-24T00:37:47;451.67;;;426.77;;
16113;SDS011;8161;-33.910;151.156;2023-03-24T00:40:19;486.65;;;458.95;;
16113;SDS011;8161;-33.910;151.156;2023-03-24T00:42:47;506.30;;;477.50;;
16113;SDS011;8161;-33.910;151.156;2023-03-24T00:45:17;527.65;;;496.95;;
16113;SDS011;8161;-33.910;151.156;2023-03-24T00:47:47;541.80;;;510.15;;
16113;SDS011;8161;-33.910;151.156;2023-03-24T00:50:18;546.50;;;514.43;;
16113;SDS011;8161;-33.910;151.156;2023-03-24T00:52:51;549.55;;;517.25;;
16113;SDS011;8161;-33.910;151.156;2023-03-24T00:55:19;556.10;;;523.30;;
16113;SDS011;8161;-33.910;151.156;2023-03-24T00:57:47;568.43;;;534.70;;
16113;SDS011;8161;-33.910;151.156;2023-03-24T01:00:19;577.20;;;542.70;;
16113;SDS011;8161;-33.910;151.156;2023-03-24T01:02:49;584.58;;;549.25;;
16113;SDS011;8161;-33.910;151.156;2023-03-24T01:05:19;583.47;;;548.38;;
16113;SDS011;8161;-33.910;151.156;2023-03-24T01:07:48;581.77;;;546.83;;
16113;SDS011;8161;-33.910;151.156;2023-03-24T01:10:21;593.30;;;557.43;;
16113;SDS011;8161;-33.910;151.156;2023-03-24T01:12:51;594.28;;;558.38;;
16113;SDS011;8161;-33.910;151.156;2023-03-24T01:15:24;590.75;;;555.08;;
16113;SDS011;8161;-33.910;151.156;2023-03-24T01:18:01;596.92;;;560.92;;
16113;SDS011;8161;-33.910;151.156;2023-03-24T01:20:29;601.57;;;564.97;;
16113;SDS011;8161;-33.910;151.156;2023-03-24T01:23:00;599.00;;;562.55;;
16113;SDS011;8161;-33.910;151.156;2023-03-24T01:25:30;600.38;;;563.60;;
16113;SDS011;8161;-33.910;151.156;2023-03-24T01:27:58;601.45;;;564.67;;
16113;SDS011;8161;-33.910;151.156;2023-03-24T01:30:26;613.93;;;576.10;;
16113;SDS011;8161;-33.910;151.156;2023-03-24T01:32:57;621.67;;;583.55;;
16113;SDS011;8161;-33.910;151.156;2023-03-24T01:35:25;623.72;;;585.40;;
16113;SDS011;8161;-33.910;151.156;2023-03-24T01:37:52;614.70;;;576.90;;
16113;SDS011;8161;-33.910;151.156;2023-03-24T01:40:21;617.97;;;580.03;;
16113;SDS011;8161;-33.910;151.156;2023-03-24T01:42:50;612.25;;;574.72;;
16113;SDS011;8161;-33.910;151.156;2023-03-24T01:48:14;611.97;;;574.03;;
16113;SDS011;8161;-33.910;151.156;2023-03-24T01:50:49;606.85;;;569.95;;
16113;SDS011;8161;-33.910;151.156;2023-03-24T01:53:39;607.33;;;570.33;;
16113;SDS011;8161;-33.910;151.156;2023-03-24T01:56:11;613.47;;;575.30;;
16113;SDS011;8161;-33.910;151.156;2023-03-24T01:58:40;615.30;;;577.60;;
16113;SDS011;8161;-33.910;151.156;2023-03-24T02:01:13;627.22;;;588.60;;
16113;SDS011;8161;-33.910;151.156;2023-03-24T02:03:42;621.67;;;583.30;;
16113;SDS011;8161;-33.910;151.156;2023-03-24T02:06:11;617.97;;;579.97;;
16113;SDS011;8161;-33.910;151.156;2023-03-24T02:08:40;614.27;;;576.23;;
16113;SDS011;8161;-33.910;151.156;2023-03-24T02:11:16;608.75;;;571.20;;
16113;SDS011;8161;-33.910;151.156;2023-03-24T02:13:48;610.20;;;572.75;;
16113;SDS011;8161;-33.910;151.156;2023-03-24T02:35:54;654.35;;;612.40;;
16113;SDS011;8161;-33.910;151.156;2023-03-24T02:43:41;646.47;;;606.08;;
16113;SDS011;8161;-33.910;151.156;2023-03-24T02:48:56;648.83;;;607.72;;
16113;SDS011;8161;-33.910;151.156;2023-03-24T02:51:41;660.23;;;618.47;;
16113;SDS011;8161;-33.910;151.156;2023-03-24T02:54:26;664.17;;;621.65;;
16113;SDS011;8161;-33.910;151.156;2023-03-24T02:57:08;672.38;;;629.28;;
16113;SDS011;8161;-33.910;151.156;2023-03-24T02:59:52;666.80;;;624.30;;
16113;SDS011;8161;-33.910;151.156;2023-03-24T03:02:29;666.03;;;623.75;;
16113;SDS011;8161;-33.910;151.156;2023-03-24T03:05:02;663.03;;;620.75;;
16113;SDS011;8161;-33.910;151.156;2023-03-24T03:07:38;661.40;;;618.97;;
16113;SDS011;8161;-33.910;151.156;2023-03-24T03:10:14;660.65;;;618.70;;
16113;SDS011;8161;-33.910;151.156;2023-03-24T03:13:04;658.07;;;616.33;;
16113;SDS011;8161;-33.910;151.156;2023-03-24T03:15:35;656.70;;;615.00;;
16113;SDS011;8161;-33.910;151.156;2023-03-24T03:18:18;654.25;;;612.55;;
16113;SDS011;8161;-33.910;151.156;2023-03-24T03:20:50;650.40;;;609.70;;
16113;SDS011;8161;-33.910;151.156;2023-03-24T03:23:27;649.67;;;608.88;;
16113;SDS011;8161;-33.910;151.156;2023-03-24T03:26:04;644.53;;;604.03;;
16113;SDS011;8161;-33.910;151.156;2023-03-24T03:28:37;640.03;;;600.07;;
16113;SDS011;8161;-33.910;151.156;2023-03-24T03:31:16;639.72;;;599.92;;
16113;SDS011;8161;-33.910;151.156;2023-03-24T03:34:10;634.63;;;595.42;;
16113;SDS011;8161;-33.910;151.156;2023-03-24T03:37:23;642.60;;;602.53;;
16113;SDS011;8161;-33.910;151.156;2023-03-24T03:40:04;633.87;;;594.60;;
16113;SDS011;8161;-33.910;151.156;2023-03-24T03:42:37;628.92;;;589.95;;
16113;SDS011;8161;-33.910;151.156;2023-03-24T03:45:06;629.65;;;590.17;;
16113;SDS011;8161;-33.910;151.156;2023-03-24T03:47:35;632.33;;;592.28;;
16113;SDS011;8161;-33.910;151.156;2023-03-24T03:50:03;638.47;;;598.47;;
16113;SDS011;8161;-33.910;151.156;2023-03-24T03:52:33;646.08;;;605.22;;
16113;SDS011;8161;-33.910;151.156;2023-03-24T03:55:03;649.88;;;609.10;;
16113;SDS011;8161;-33.910;151.156;2023-03-24T03:57:31;653.13;;;611.72;;
16113;SDS011;8161;-33.910;151.156;2023-03-24T04:00:00;659.03;;;617.33;;
16113;SDS011;8161;-33.910;151.156;2023-03-24T04:24:26;635.08;;;595.65;;
16113;SDS011;8161;-33.910;151.156;2023-03-24T04:35:06;638.88;;;599.05;;
16113;SDS011;8161;-33.910;151.156;2023-03-24T04:37:37;638.97;;;599.22;;
16113;SDS011;8161;-33.910;151.156;2023-03-24T04:40:10;637.53;;;597.88;;
16113;SDS011;8161;-33.910;151.156;2023-03-24T04:42:46;638.47;;;598.47;;
16113;SDS011;8161;-33.910;151.156;2023-03-24T04:45:17;638.50;;;598.63;;
16113;SDS011;8161;-33.910;151.156;2023-03-24T04:47:46;643.78;;;602.80;;
16113;SDS011;8161;-33.910;151.156;2023-03-24T04:53:08;639.92;;;600.13;;
16113;SDS011;8161;-33.910;151.156;2023-03-24T04:58:30;649.03;;;608.08;;
16113;SDS011;8161;-33.910;151.156;2023-03-24T05:00:57;644.30;;;603.97;;
16113;SDS011;8161;-33.910;151.156;2023-03-24T05:03:24;645.75;;;604.88;;
16113;SDS011;8161;-33.910;151.156;2023-03-24T05:05:52;643.28;;;602.80;;
16113;SDS011;8161;-33.910;151.156;2023-03-24T05:08:19;642.85;;;602.72;;
16113;SDS011;8161;-33.910;151.156;2023-03-24T05:10:46;642.85;;;602.60;;
16113;SDS011;8161;-33.910;151.156;2023-03-24T05:13:14;653.95;;;613.10;;
16113;SDS011;8161;-33.910;151.156;2023-03-24T05:15:41;654.97;;;613.57;;
16113;SDS011;8161;-33.910;151.156;2023-03-24T05:18:09;658.30;;;616.53;;
16113;SDS011;8161;-33.910;151.156;2023-03-24T05:20:36;661.73;;;619.63;;
16113;SDS011;8161;-33.910;151.156;2023-03-24T05:23:03;644.67;;;604.38;;
16113;SDS011;8161;-33.910;151.156;2023-03-24T05:25:31;651.25;;;610.40;;
16113;SDS011;8161;-33.910;151.156;2023-03-24T05:27:58;650.58;;;609.70;;
16113;SDS011;8161;-33.910;151.156;2023-03-24T05:30:25;638.83;;;599.00;;
16113;SDS011;8161;-33.910;151.156;2023-03-24T05:32:52;637.00;;;597.60;;
16113;SDS011;8161;-33.910;151.156;2023-03-24T05:35:20;632.60;;;593.17;;
16113;SDS011;8161;-33.910;151.156;2023-03-24T05:37:47;639.90;;;600.00;;
16113;SDS011;8161;-33.910;151.156;2023-03-24T05:40:14;641.78;;;601.92;;
16113;SDS011;8161;-33.910;151.156;2023-03-24T05:42:42;638.42;;;598.78;;
16113;SDS011;8161;-33.910;151.156;2023-03-24T05:45:13;639.25;;;599.63;;
16113;SDS011;8161;-33.910;151.156;2023-03-24T05:47:40;640.65;;;600.65;;
16113;SDS011;8161;-33.910;151.156;2023-03-24T05:50:07;640.33;;;600.47;;
16113;SDS011;8161;-33.910;151.156;2023-03-24T05:52:35;639.60;;;599.57;;
16113;SDS011;8161;-33.910;151.156;2023-03-24T05:55:02;645.72;;;605.15;;
16113;SDS011;8161;-33.910;151.156;2023-03-24T05:57:30;645.47;;;605.30;;
16113;SDS011;8161;-33.910;151.156;2023-03-24T05:59:59;642.13;;;602.20;;
16113;SDS011;8161;-33.910;151.156;2023-03-24T06:02:29;649.92;;;609.00;;
16113;SDS011;8161;-33.910;151.156;2023-03-24T06:04:56;648.60;;;607.90;;
16113;SDS011;8161;-33.910;151.156;2023-03-24T06:07:24;657.58;;;616.38;;
16113;SDS011;8161;-33.910;151.156;2023-03-24T06:09:56;656.85;;;615.67;;
16113;SDS011;8161;-33.910;151.156;2023-03-24T06:12:27;653.38;;;612.42;;
16113;SDS011;8161;-33.910;151.156;2023-03-24T06:14:55;654.55;;;613.28;;
16113;SDS011;8161;-33.910;151.156;2023-03-24T06:17:23;655.80;;;614.58;;
16113;SDS011;8161;-33.910;151.156;2023-03-24T06:19:53;651.90;;;610.92;;
16113;SDS011;8161;-33.910;151.156;2023-03-24T06:22:29;660.05;;;618.35;;
16113;SDS011;8161;-33.910;151.156;2023-03-24T06:24:57;650.33;;;609.53;;
16113;SDS011;8161;-33.910;151.156;2023-03-24T06:27:25;646.83;;;606.07;;
16113;SDS011;8161;-33.910;151.156;2023-03-24T06:29:55;655.83;;;614.38;;
16113;SDS011;8161;-33.910;151.156;2023-03-24T06:32:23;654.28;;;612.92;;
16113;SDS011;8161;-33.910;151.156;2023-03-24T06:34:50;649.20;;;608.50;;
16113;SDS011;8161;-33.910;151.156;2023-03-24T06:37:21;652.22;;;611.33;;
16113;SDS011;8161;-33.910;151.156;2023-03-24T06:39:49;653.23;;;611.97;;
16113;SDS011;8161;-33.910;151.156;2023-03-24T06:42:16;653.28;;;612.33;;
16113;SDS011;8161;-33.910;151.156;2023-03-24T06:44:43;654.70;;;613.58;;
16113;SDS011;8161;-33.910;151.156;2023-03-24T06:47:11;652.70;;;611.38;;
16113;SDS011;8161;-33.910;151.156;2023-03-24T06:49:38;655.38;;;614.25;;
16113;SDS011;8161;-33.910;151.156;2023-03-24T06:52:06;654.00;;;612.88;;
16113;SDS011;8161;-33.910;151.156;2023-03-24T06:54:33;653.75;;;612.55;;
16113;SDS011;8161;-33.910;151.156;2023-03-24T06:57:00;654.37;;;612.97;;
16113;SDS011;8161;-33.910;151.156;2023-03-24T06:59:28;653.83;;;612.70;;
16113;SDS011;8161;-33.910;151.156;2023-03-24T07:01:55;653.92;;;612.72;;
16113;SDS011;8161;-33.910;151.156;2023-03-24T07:04:22;653.70;;;612.58;;
16113;SDS011;8161;-33.910;151.156;2023-03-24T07:06:53;654.75;;;613.72;;
16113;SDS011;8161;-33.910;151.156;2023-03-24T07:09:20;652.38;;;611.20;;
16113;SDS011;8161;-33.910;151.156;2023-03-24T07:11:47;656.47;;;615.17;;
16113;SDS011;8161;-33.910;151.156;2023-03-24T07:14:15;651.63;;;610.58;;
16113;SDS011;8161;-33.910;151.156;2023-03-24T07:16:42;648.85;;;608.05;;
16113;SDS011;8161;-33.910;151.156;2023-03-24T07:19:12;644.22;;;603.92;;
16113;SDS011;8161;-33.910;151.156;2023-03-24T07:21:42;641.47;;;601.67;;
16113;SDS011;8161;-33.910;151.156;2023-03-24T07:24:11;626.45;;;587.33;;
16113;SDS011;8161;-33.910;151.156;2023-03-24T07:26:38;616.63;;;578.63;;
16113;SDS011;8161;-33.910;151.156;2023-03-24T07:29:06;611.77;;;574.30;;
16113;SDS011;8161;-33.910;151.156;2023-03-24T07:31:33;531.03;;;500.25;;
16113;SDS011;8161;-33.910;151.156;2023-03-24T07:34:06;501.90;;;472.85;;
16113;SDS011;8161;-33.910;151.156;2023-03-24T07:36:33;480.40;;;453.20;;
16113;SDS011;8161;-33.910;151.156;2023-03-24T07:39:00;467.38;;;441.30;;
16113;SDS011;8161;-33.910;151.156;2023-03-24T07:41:29;450.48;;;425.60;;
16113;SDS011;8161;-33.910;151.156;2023-03-24T07:43:59;439.98;;;415.88;;
16113;SDS011;8161;-33.910;151.156;2023-03-24T07:46:27;433.85;;;410.13;;
16113;SDS011;8161;-33.910;151.156;2023-03-24T07:48:54;419.63;;;396.52;;
16113;SDS011;8161;-33.910;151.156;2023-03-24T07:51:22;399.90;;;378.30;;
16113;SDS011;8161;-33.910;151.156;2023-03-24T07:53:49;408.25;;;385.83;;
16113;SDS011;8161;-33.910;151.156;2023-03-24T07:56:16;403.98;;;381.98;;
16113;SDS011;8161;-33.910;151.156;2023-03-24T07:58:43;381.42;;;360.75;;
16113;SDS011;8161;-33.910;151.156;2023-03-24T08:01:11;373.25;;;353.52;;
16113;SDS011;8161;-33.910;151.156;2023-03-24T08:03:39;372.40;;;352.35;;
16113;SDS011;8161;-33.910;151.156;2023-03-24T08:06:07;360.52;;;341.33;;
16113;SDS011;8161;-33.910;151.156;2023-03-24T08:08:37;351.73;;;332.70;;
16113;SDS011;8161;-33.910;151.156;2023-03-24T08:11:04;349.20;;;330.75;;
16113;SDS011;8161;-33.910;151.156;2023-03-24T08:13:31;340.63;;;322.83;;
16113;SDS011;8161;-33.910;151.156;2023-03-24T08:15:59;329.05;;;311.73;;
16113;SDS011;8161;-33.910;151.156;2023-03-24T08:18:26;329.88;;;312.48;;
16113;SDS011;8161;-33.910;151.156;2023-03-24T08:20:55;317.10;;;299.98;;
16113;SDS011;8161;-33.910;151.156;2023-03-24T08:23:24;310.95;;;294.88;;
16113;SDS011;8161;-33.910;151.156;2023-03-24T08:25:51;312.25;;;296.17;;
16113;SDS011;8161;-33.910;151.156;2023-03-24T08:28:19;306.52;;;290.77;;
16113;SDS011;8161;-33.910;151.156;2023-03-24T08:30:46;291.13;;;275.85;;
16113;SDS011;8161;-33.910;151.156;2023-03-24T08:33:14;292.42;;;277.05;;
16113;SDS011;8161;-33.910;151.156;2023-03-24T08:35:41;286.70;;;271.73;;
16113;SDS011;8161;-33.910;151.156;2023-03-24T08:38:12;280.75;;;266.10;;
16113;SDS011;8161;-33.910;151.156;2023-03-24T08:40:41;264.10;;;250.25;;
16113;SDS011;8161;-33.910;151.156;2023-03-24T08:43:11;256.67;;;242.80;;
16113;SDS011;8161;-33.910;151.156;2023-03-24T08:45:40;256.15;;;243.07;;
16113;SDS011;8161;-33.910;151.156;2023-03-24T08:48:08;257.05;;;243.82;;
16113;SDS011;8161;-33.910;151.156;2023-03-24T08:50:37;252.27;;;239.15;;
16113;SDS011;8161;-33.910;151.156;2023-03-24T08:53:06;239.63;;;226.88;;
16113;SDS011;8161;-33.910;151.156;2023-03-24T08:55:35;237.30;;;224.90;;
16113;SDS011;8161;-33.910;151.156;2023-03-24T08:58:06;233.50;;;219.77;;
16113;SDS011;8161;-33.910;151.156;2023-03-24T09:00:44;218.55;;;206.70;;
16113;SDS011;8161;-33.910;151.156;2023-03-24T09:03:14;208.20;;;197.43;;
16113;SDS011;8161;-33.910;151.156;2023-03-24T09:05:46;192.68;;;182.38;;
16113;SDS011;8161;-33.910;151.156;2023-03-24T09:08:14;190.77;;;180.32;;
16113;SDS011;8161;-33.910;151.156;2023-03-24T09:10:43;178.50;;;168.70;;
16113;SDS011;8161;-33.910;151.156;2023-03-24T09:13:14;177.05;;;167.43;;
16113;SDS011;8161;-33.910;151.156;2023-03-24T09:15:49;173.05;;;163.45;;
16113;SDS011;8161;-33.910;151.156;2023-03-24T09:18:18;172.40;;;162.90;;
16113;SDS011;8161;-33.910;151.156;2023-03-24T09:20:46;163.68;;;154.85;;
16113;SDS011;8161;-33.910;151.156;2023-03-24T09:23:14;161.70;;;152.55;;
16113;SDS011;8161;-33.910;151.156;2023-03-24T09:25:42;159.27;;;150.52;;
16113;SDS011;8161;-33.910;151.156;2023-03-24T09:28:09;153.35;;;145.23;;
16113;SDS011;8161;-33.910;151.156;2023-03-24T09:30:39;148.90;;;140.85;;
16113;SDS011;8161;-33.910;151.156;2023-03-24T09:33:09;148.90;;;140.65;;
16113;SDS011;8161;-33.910;151.156;2023-03-24T09:35:37;149.32;;;141.13;;
16113;SDS011;8161;-33.910;151.156;2023-03-24T09:38:05;146.88;;;139.13;;
16113;SDS011;8161;-33.910;151.156;2023-03-24T09:40:35;147.73;;;139.75;;
16113;SDS011;8161;-33.910;151.156;2023-03-24T09:45:55;143.20;;;135.43;;
16113;SDS011;8161;-33.910;151.156;2023-03-24T09:48:31;146.95;;;138.88;;
16113;SDS011;8161;-33.910;151.156;2023-03-24T09:51:14;131.10;;;123.80;;
16113;SDS011;8161;-33.910;151.156;2023-03-24T09:56:26;136.07;;;128.68;;
16113;SDS011;8161;-33.910;151.156;2023-03-24T09:59:01;137.85;;;130.32;;
16113;SDS011;8161;-33.910;151.156;2023-03-24T10:01:29;139.02;;;131.40;;
16113;SDS011;8161;-33.910;151.156;2023-03-24T10:03:57;138.77;;;131.15;;
16113;SDS011;8161;-33.910;151.156;2023-03-24T10:06:27;133.02;;;126.03;;
16113;SDS011;8161;-33.910;151.156;2023-03-24T10:11:46;125.18;;;118.57;;
16113;SDS011;8161;-33.910;151.156;2023-03-24T10:19:54;127.28;;;120.28;;
16113;SDS011;8161;-33.910;151.156;2023-03-24T10:30:35;190.70;;;180.27;;
16113;SDS011;8161;-33.910;151.156;2023-03-24T10:33:07;203.27;;;192.35;;
16113;SDS011;8161;-33.910;151.156;2023-03-24T10:35:37;208.57;;;197.68;;
16113;SDS011;8161;-33.910;151.156;2023-03-24T10:38:16;212.60;;;201.10;;
16113;SDS011;8161;-33.910;151.156;2023-03-24T10:40:45;219.05;;;207.80;;
16113;SDS011;8161;-33.910;151.156;2023-03-24T10:43:16;222.63;;;211.00;;
16113;SDS011;8161;-33.910;151.156;2023-03-24T10:45:48;223.27;;;211.55;;
16113;SDS011;8161;-33.910;151.156;2023-03-24T10:51:14;223.90;;;212.27;;
16113;SDS011;8161;-33.910;151.156;2023-03-24T10:53:44;215.32;;;204.02;;
16113;SDS011;8161;-33.910;151.156;2023-03-24T10:56:36;206.70;;;196.03;;
16113;SDS011;8161;-33.910;151.156;2023-03-24T11:05:35;115.33;;;109.20;;
16113;SDS011;8161;-33.910;151.156;2023-03-24T11:07:38;76.97;;;72.43;;
16113;SDS011;8161;-33.910;151.156;2023-03-24T11:12:42;60.00;;;56.25;;
16113;SDS011;8161;-33.910;151.156;2023-03-24T11:15:25;55.05;;;51.65;;
16113;SDS011;8161;-33.910;151.156;2023-03-24T11:17:58;51.60;;;48.35;;
16113;SDS011;8161;-33.910;151.156;2023-03-24T11:20:39;47.53;;;44.63;;
16113;SDS011;8161;-33.910;151.156;2023-03-24T11:23:36;46.33;;;43.13;;
16113;SDS011;8161;-33.910;151.156;2023-03-24T11:28:49;35.63;;;33.47;;
16113;SDS011;8161;-33.910;151.156;2023-03-24T11:31:22;36.73;;;33.93;;
16113;SDS011;8161;-33.910;151.156;2023-03-24T11:34:16;34.33;;;32.13;;
16113;SDS011;8161;-33.910;151.156;2023-03-24T11:36:50;33.00;;;30.77;;
16113;SDS011;8161;-33.910;151.156;2023-03-24T11:39:23;32.08;;;29.83;;
16113;SDS011;8161;-33.910;151.156;2023-03-24T11:42:03;32.25;;;30.17;;
16113;SDS011;8161;-33.910;151.156;2023-03-24T11:47:12;29.83;;;28.00;;
16113;SDS011;8161;-33.910;151.156;2023-03-24T11:49:51;30.23;;;28.02;;
16113;SDS011;8161;-33.910;151.156;2023-03-24T11:52:30;28.83;;;26.92;;
16113;SDS011;8161;-33.910;151.156;2023-03-24T11:55:03;27.17;;;25.38;;
16113;SDS011;8161;-33.910;151.156;2023-03-24T11:58:15;26.53;;;24.83;;
16113;SDS011;8161;-33.910;151.156;2023-03-24T12:00:51;24.33;;;22.60;;
16113;SDS011;8161;-33.910;151.156;2023-03-24T12:11:16;20.92;;;19.40;;
16113;SDS011;8161;-33.910;151.156;2023-03-24T12:13:57;19.50;;;18.20;;
16113;SDS011;8161;-33.910;151.156;2023-03-24T12:22:01;17.35;;;16.10;;
16113;SDS011;8161;-33.910;151.156;2023-03-24T12:30:23;13.65;;;12.75;;
16113;SDS011;8161;-33.910;151.156;2023-03-24T12:35:38;10.55;;;9.45;;
16113;SDS011;8161;-33.910;151.156;2023-03-24T12:58:21;14.75;;;13.50;;
16113;SDS011;8161;-33.910;151.156;2023-03-24T13:00:34;14.70;;;13.20;;
16113;SDS011;8161;-33.910;151.156;2023-03-24T13:03:20;14.50;;;13.27;;
16113;SDS011;8161;-33.910;151.156;2023-03-24T13:05:58;14.07;;;12.53;;
16113;SDS011;8161;-33.910;151.156;2023-03-24T13:08:39;14.13;;;12.17;;
16113;SDS011;8161;-33.910;151.156;2023-03-24T13:11:10;11.83;;;10.50;;
16113;SDS011;8161;-33.910;151.156;2023-03-24T13:13:43;11.75;;;10.73;;
16113;SDS011;8161;-33.910;151.156;2023-03-24T13:16:18;11.32;;;10.30;;
16113;SDS011;8161;-33.910;151.156;2023-03-24T13:18:53;12.77;;;10.68;;
16113;SDS011;8161;-33.910;151.156;2023-03-24T13:21:28;11.27;;;10.40;;
16113;SDS011;8161;-33.910;151.156;2023-03-24T13:29:33;10.60;;;9.70;;
16113;SDS011;8161;-33.910;151.156;2023-03-24T13:38:17;12.52;;;9.52;;
16113;SDS011;8161;-33.910;151.156;2023-03-24T13:40:36;10.73;;;9.13;;
16113;SDS011;8161;-33.910;151.156;2023-03-24T13:43:11;11.50;;;9.13;;
16113;SDS011;8161;-33.910;151.156;2023-03-24T13:45:49;10.50;;;9.38;;
16113;SDS011;8161;-33.910;151.156;2023-03-24T13:48:34;9.70;;;8.80;;
16113;SDS011;8161;-33.910;151.156;2023-03-24T13:54:24;10.60;;;8.57;;
16113;SDS011;8161;-33.910;151.156;2023-03-24T13:59:25;9.55;;;8.55;;
16113;SDS011;8161;-33.910;151.156;2023-03-24T14:15:28;8.98;;;8.15;;
16113;SDS011;8161;-33.910;151.156;2023-03-24T14:17:56;9.02;;;8.13;;
16113;SDS011;8161;-33.910;151.156;2023-03-24T14:20:58;9.35;;;8.43;;
16113;SDS011;8161;-33.910;151.156;2023-03-24T14:26:02;8.75;;;7.82;;
16113;SDS011;8161;-33.910;151.156;2023-03-24T14:28:41;9.30;;;7.43;;
16113;SDS011;8161;-33.910;151.156;2023-03-24T14:36:30;8.68;;;7.47;;
16113;SDS011;8161;-33.910;151.156;2023-03-24T14:39:07;8.50;;;7.28;;
16113;SDS011;8161;-33.910;151.156;2023-03-24T14:41:50;10.70;;;7.53;;
16113;SDS011;8161;-33.910;151.156;2023-03-24T14:47:21;9.70;;;7.82;;
16113;SDS011;8161;-33.910;151.156;2023-03-24T14:49:54;8.07;;;7.35;;
16113;SDS011;8161;-33.910;151.156;2023-03-24T14:54:56;6.90;;;6.13;;
16113;SDS011;8161;-33.910;151.156;2023-03-24T14:57:41;6.97;;;5.85;;
16113;SDS011;8161;-33.910;151.156;2023-03-24T15:00:18;7.80;;;5.83;;
16113;SDS011;8161;-33.910;151.156;2023-03-24T15:02:50;9.40;;;5.18;;
16113;SDS011;8161;-33.910;151.156;2023-03-24T15:05:23;6.35;;;5.00;;
16113;SDS011;8161;-33.910;151.156;2023-03-24T15:13:38;7.18;;;4.60;;
16113;SDS011;8161;-33.910;151.156;2023-03-24T15:16:15;7.60;;;4.40;;
16113;SDS011;8161;-33.910;151.156;2023-03-24T15:24:22;12.20;;;4.35;;
16113;SDS011;8161;-33.910;151.156;2023-03-24T15:26:53;9.75;;;4.25;;
16113;SDS011;8161;-33.910;151.156;2023-03-24T15:29:39;5.40;;;4.28;;
16113;SDS011;8161;-33.910;151.156;2023-03-24T15:32:18;10.63;;;4.20;;
16113;SDS011;8161;-33.910;151.156;2023-03-24T15:34:51;8.75;;;4.20;;
16113;SDS011;8161;-33.910;151.156;2023-03-24T15:39:49;6.50;;;3.90;;
16113;SDS011;8161;-33.910;151.156;2023-03-24T15:42:20;10.57;;;3.90;;
16113;SDS011;8161;-33.910;151.156;2023-03-24T15:44:48;7.25;;;4.05;;
16113;SDS011;8161;-33.910;151.156;2023-03-24T15:49:53;8.52;;;3.85;;
16113;SDS011;8161;-33.910;151.156;2023-03-24T15:52:23;7.88;;;3.30;;
16113;SDS011;8161;-33.910;151.156;2023-03-24T15:55:01;8.40;;;4.00;;
16113;SDS011;8161;-33.910;151.156;2023-03-24T15:57:41;6.27;;;3.50;;
16113;SDS011;8161;-33.910;151.156;2023-03-24T16:00:12;5.82;;;3.10;;
16113;SDS011;8161;-33.910;151.156;2023-03-24T16:02:45;4.82;;;3.15;;
16113;SDS011;8161;-33.910;151.156;2023-03-24T16:05:20;6.15;;;3.20;;
16113;SDS011;8161;-33.910;151.156;2023-03-24T16:07:59;4.72;;;3.15;;
16113;SDS011;8161;-33.910;151.156;2023-03-24T16:10:40;5.65;;;3.25;;
16113;SDS011;8161;-33.910;151.156;2023-03-24T16:13:21;5.75;;;3.10;;
16113;SDS011;8161;-33.910;151.156;2023-03-24T16:15:58;8.23;;;3.10;;
16113;SDS011;8161;-33.910;151.156;2023-03-24T16:18:33;5.32;;;3.22;;
16113;SDS011;8161;-33.910;151.156;2023-03-24T16:23:42;6.82;;;3.30;;
16113;SDS011;8161;-33.910;151.156;2023-03-24T16:26:15;6.90;;;2.92;;
16113;SDS011;8161;-33.910;151.156;2023-03-24T16:28:44;8.30;;;3.20;;
16113;SDS011;8161;-33.910;151.156;2023-03-24T16:31:19;7.35;;;2.78;;
16113;SDS011;8161;-33.910;151.156;2023-03-24T16:33:52;5.97;;;2.95;;
16113;SDS011;8161;-33.910;151.156;2023-03-24T16:36:21;5.85;;;3.05;;
16113;SDS011;8161;-33.910;151.156;2023-03-24T16:38:51;11.35;;;3.13;;
16113;SDS011;8161;-33.910;151.156;2023-03-24T16:41:19;5.05;;;2.78;;
16113;SDS011;8161;-33.910;151.156;2023-03-24T16:43:47;4.13;;;2.63;;
16113;SDS011;8161;-33.910;151.156;2023-03-24T16:46:15;6.50;;;3.03;;
16113;SDS011;8161;-33.910;151.156;2023-03-24T16:48:52;6.68;;;2.80;;
16113;SDS011;8161;-33.910;151.156;2023-03-24T16:51:20;4.70;;;2.78;;
16113;SDS011;8161;-33.910;151.156;2023-03-24T16:53:48;4.40;;;2.80;;
16113;SDS011;8161;-33.910;151.156;2023-03-24T16:56:16;5.40;;;2.72;;
16113;SDS011;8161;-33.910;151.156;2023-03-24T16:58:45;7.78;;;2.88;;
16113;SDS011;8161;-33.910;151.156;2023-03-24T17:01:17;6.18;;;3.10;;
16113;SDS011;8161;-33.910;151.156;2023-03-24T17:03:54;6.65;;;2.78;;
16113;SDS011;8161;-33.910;151.156;2023-03-24T17:06:23;5.30;;;2.45;;
16113;SDS011;8161;-33.910;151.156;2023-03-24T17:08:52;7.72;;;3.10;;
16113;SDS011;8161;-33.910;151.156;2023-03-24T17:11:24;6.63;;;2.90;;
16113;SDS011;8161;-33.910;151.156;2023-03-24T17:13:53;5.10;;;2.90;;
16113;SDS011;8161;-33.910;151.156;2023-03-24T17:16:32;4.78;;;2.65;;
16113;SDS011;8161;-33.910;151.156;2023-03-24T17:19:01;5.72;;;2.55;;
16113;SDS011;8161;-33.910;151.156;2023-03-24T17:21:29;6.00;;;2.83;;
16113;SDS011;8161;-33.910;151.156;2023-03-24T17:23:59;7.80;;;2.85;;
16113;SDS011;8161;-33.910;151.156;2023-03-24T17:26:27;3.97;;;2.60;;
16113;SDS011;8161;-33.910;151.156;2023-03-24T17:28:55;4.63;;;2.30;;
16113;SDS011;8161;-33.910;151.156;2023-03-24T17:31:25;5.57;;;2.47;;
16113;SDS011;8161;-33.910;151.156;2023-03-24T17:33:52;4.15;;;2.33;;
16113;SDS011;8161;-33.910;151.156;2023-03-24T17:36:19;4.33;;;2.20;;
16113;SDS011;8161;-33.910;151.156;2023-03-24T17:38:47;6.13;;;2.78;;
16113;SDS011;8161;-33.910;151.156;2023-03-24T17:41:14;4.65;;;2.28;;